createdAt,value
2019-03-20T00:01:18.400Z,30.78
2019-03-20T00:03:46.674Z,30.91
2019-03-20T00:06:14.948Z,30.77
2019-03-20T00:08:43.210Z,32.38
2019-03-20T00:11:11.466Z,31.89
2019-03-20T00:13:39.813Z,31.71
2019-03-20T00:16:08.060Z,32.13
2019-03-20T00:18:36.313Z,31.79
2019-03-20T00:21:04.656Z,31.82
2019-03-20T00:23:32.933Z,31.35
2019-03-20T00:26:01.189Z,31.76
2019-03-20T00:28:29.468Z,31.69
2019-03-20T00:30:57.720Z,31.94
2019-03-20T00:33:25.975Z,32.44
2019-03-20T00:35:55.096Z,32.60
2019-03-20T00:38:23.345Z,32.46
2019-03-20T00:40:51.623Z,33.75
2019-03-20T00:43:19.879Z,32.23
2019-03-20T00:45:48.146Z,31.64
2019-03-20T00:48:16.396Z,31.55
2019-03-20T00:50:44.716Z,31.31
2019-03-20T00:53:13.001Z,30.81
2019-03-20T00:55:41.266Z,31.92
2019-03-20T00:58:09.531Z,31.97
2019-03-20T01:00:37.785Z,32.95
2019-03-20T01:03:06.312Z,34.82
2019-03-20T01:05:34.589Z,31.85
2019-03-20T01:08:02.836Z,29.92
2019-03-20T01:10:31.105Z,29.12
2019-03-20T01:12:59.371Z,29.05
2019-03-20T01:15:27.624Z,30.16
2019-03-20T01:17:55.871Z,29.29
2019-03-20T01:20:24.618Z,28.83
2019-03-20T01:22:52.943Z,29.66
2019-03-20T01:25:21.650Z,30.20
2019-03-20T01:27:49.989Z,29.18
2019-03-20T01:30:36.572Z,28.55
2019-03-20T01:33:12.556Z,28.68
2019-03-20T01:35:41.158Z,28.93
2019-03-20T01:38:10.242Z,28.93
2019-03-20T01:40:40.386Z,33.36
2019-03-20T01:43:08.632Z,34.83
2019-03-20T01:45:36.882Z,32.16
2019-03-20T01:48:05.416Z,31.94
2019-03-20T01:50:33.668Z,31.54
2019-03-20T01:53:01.936Z,31.18
2019-03-20T01:55:30.187Z,31.56
2019-03-20T01:57:58.476Z,31.54
2019-03-20T02:00:26.814Z,32.02
2019-03-20T02:02:55.083Z,32.22
2019-03-20T02:05:34.651Z,32.48
2019-03-20T02:07:53.405Z,31.23
2019-03-20T02:10:21.675Z,30.15
2019-03-20T02:12:49.933Z,30.30
2019-03-20T02:15:19.144Z,31.41
2019-03-20T02:17:47.409Z,32.06
2019-03-20T02:20:19.549Z,32.82
2019-03-20T02:22:47.815Z,35.65
2019-03-20T02:25:16.247Z,33.19
2019-03-20T02:27:44.780Z,34.38
2019-03-20T02:30:15.778Z,33.60
2019-03-20T02:32:44.534Z,32.46
2019-03-20T02:35:13.174Z,32.55
2019-03-20T02:37:41.426Z,32.15
2019-03-20T02:40:12.703Z,32.07
2019-03-20T02:42:40.978Z,34.42
2019-03-20T02:45:11.783Z,32.53
2019-03-20T02:47:40.108Z,33.36
2019-03-20T02:50:10.232Z,32.39
2019-03-20T02:52:38.502Z,33.53
2019-03-20T02:55:08.988Z,32.28
2019-03-20T02:57:37.262Z,32.61
2019-03-20T03:00:08.823Z,32.47
2019-03-20T03:02:37.098Z,31.26
2019-03-20T03:05:06.800Z,30.41
2019-03-20T03:07:35.082Z,30.93
2019-03-20T03:10:04.601Z,31.46
2019-03-20T03:12:32.864Z,31.55
2019-03-20T03:15:01.120Z,32.50
2019-03-20T03:17:29.382Z,33.12
2019-03-20T03:19:57.665Z,32.13
2019-03-20T03:22:25.933Z,32.96
2019-03-20T03:24:54.203Z,32.60
2019-03-20T03:27:22.461Z,32.50
2019-03-20T03:29:50.728Z,35.64
2019-03-20T03:32:19.050Z,35.77
2019-03-20T03:34:47.325Z,33.74
2019-03-20T03:37:15.604Z,33.92
2019-03-20T03:39:43.871Z,33.28
2019-03-20T03:42:12.193Z,32.96
2019-03-20T03:44:40.457Z,32.89
2019-03-20T03:47:08.726Z,32.58
2019-03-20T03:49:36.997Z,36.60
2019-03-20T03:52:05.258Z,36.50
2019-03-20T03:54:33.540Z,37.17
2019-03-20T03:57:01.869Z,34.57
2019-03-20T03:59:30.118Z,34.81
2019-03-20T04:01:58.552Z,34.13
2019-03-20T04:04:26.779Z,37.10
2019-03-20T04:06:55.073Z,37.31
2019-03-20T04:09:23.355Z,36.01
2019-03-20T04:11:51.635Z,34.51
2019-03-20T04:14:19.881Z,34.00
2019-03-20T04:16:48.135Z,32.95
2019-03-20T04:19:16.413Z,34.12
2019-03-20T04:21:44.660Z,34.11
2019-03-20T04:24:12.931Z,36.49
2019-03-20T04:26:41.194Z,34.15
2019-03-20T04:29:09.461Z,33.57
2019-03-20T04:31:37.706Z,32.67
2019-03-20T04:34:05.974Z,32.37
2019-03-20T04:36:34.221Z,32.31
2019-03-20T04:39:02.495Z,32.61
2019-03-20T04:41:30.771Z,33.19
2019-03-20T04:43:59.040Z,32.54
2019-03-20T04:46:27.287Z,32.61
2019-03-20T04:48:55.567Z,34.45
2019-03-20T04:51:23.867Z,32.90
2019-03-20T04:53:52.141Z,33.31
2019-03-20T04:56:20.422Z,34.34
2019-03-20T04:58:48.684Z,34.06
2019-03-20T05:01:16.930Z,34.06
2019-03-20T05:03:45.202Z,33.58
2019-03-20T05:06:13.458Z,33.22
2019-03-20T05:08:41.736Z,33.44
2019-03-20T05:11:09.980Z,34.72
2019-03-20T05:13:38.244Z,32.56
2019-03-20T05:16:06.499Z,32.03
2019-03-20T05:18:34.765Z,31.92
2019-03-20T05:21:03.011Z,32.68
2019-03-20T05:23:31.306Z,33.51
2019-03-20T05:25:59.579Z,34.72
2019-03-20T05:28:27.845Z,35.84
2019-03-20T05:30:56.122Z,35.73
2019-03-20T05:33:24.388Z,36.05
2019-03-20T05:35:52.661Z,35.73
2019-03-20T05:38:20.941Z,36.30
2019-03-20T05:40:49.193Z,35.28
2019-03-20T05:43:17.495Z,36.61
2019-03-20T05:45:45.829Z,36.75
2019-03-20T05:48:14.116Z,37.86
2019-03-20T05:50:42.372Z,35.00
2019-03-20T05:53:10.668Z,35.29
2019-03-20T05:55:38.929Z,34.90
2019-03-20T05:58:07.184Z,34.64
2019-03-20T06:00:36.215Z,34.94
2019-03-20T06:03:04.559Z,33.53
2019-03-20T06:05:32.836Z,33.07
2019-03-20T06:08:01.102Z,32.69
2019-03-20T06:10:29.370Z,34.13
2019-03-20T06:12:57.632Z,33.86
2019-03-20T06:15:25.895Z,32.81
2019-03-20T06:17:54.171Z,33.87
2019-03-20T06:20:22.429Z,35.63
2019-03-20T06:22:50.687Z,33.14
2019-03-20T06:25:21.327Z,34.63
2019-03-20T06:27:48.965Z,34.64
2019-03-20T06:30:18.281Z,35.96
2019-03-20T06:32:46.540Z,34.31
2019-03-20T06:35:14.885Z,34.63
2019-03-20T06:37:43.306Z,34.91
2019-03-20T06:40:16.425Z,34.20
2019-03-20T06:42:44.687Z,34.00
2019-03-20T06:45:18.111Z,33.70
2019-03-20T06:47:46.382Z,34.40
2019-03-20T06:50:22.119Z,34.35
2019-03-20T06:52:50.379Z,36.74
2019-03-20T06:55:18.628Z,34.80
2019-03-20T06:57:46.961Z,33.25
2019-03-20T07:00:18.413Z,35.59
2019-03-20T07:02:47.778Z,35.54
2019-03-20T07:05:47.019Z,36.68
2019-03-20T07:08:15.405Z,35.49
2019-03-20T07:10:55.929Z,35.59
2019-03-20T07:13:24.206Z,34.64
2019-03-20T07:15:52.489Z,35.10
2019-03-20T07:18:20.776Z,34.73
2019-03-20T07:20:49.021Z,35.42
2019-03-20T07:23:17.431Z,36.45
2019-03-20T07:25:45.681Z,34.61
2019-03-20T07:28:13.981Z,35.77
2019-03-20T07:30:42.259Z,35.08
2019-03-20T07:33:10.544Z,34.36
2019-03-20T07:35:38.803Z,34.24
2019-03-20T07:38:07.081Z,36.81
2019-03-20T07:40:35.379Z,36.65
2019-03-20T07:43:08.799Z,35.35
2019-03-20T07:45:33.685Z,32.53
2019-03-20T07:48:01.967Z,32.53
2019-03-20T07:50:30.241Z,33.99
2019-03-20T07:52:58.525Z,34.84
2019-03-20T07:55:26.787Z,33.60
2019-03-20T07:57:55.056Z,32.87
2019-03-20T08:00:23.334Z,32.76
2019-03-20T08:02:51.610Z,32.81
2019-03-20T08:05:28.832Z,33.86
2019-03-20T08:07:49.903Z,32.70
2019-03-20T08:10:19.602Z,32.66
2019-03-20T08:12:47.881Z,32.50
2019-03-20T08:15:16.989Z,33.35
2019-03-20T08:17:45.339Z,34.33
2019-03-20T08:20:22.046Z,33.63
2019-03-20T08:22:50.394Z,31.59
2019-03-20T08:25:18.661Z,32.15
2019-03-20T08:27:46.932Z,32.92
2019-03-20T08:30:19.983Z,33.84
2019-03-20T08:32:48.244Z,32.39
2019-03-20T08:35:16.509Z,32.05
2019-03-20T08:37:44.790Z,32.92
2019-03-20T08:40:17.086Z,33.71
2019-03-20T08:42:45.451Z,32.73
2019-03-20T08:45:19.107Z,31.54
2019-03-20T08:47:47.542Z,33.32
2019-03-20T08:50:23.026Z,32.45
2019-03-20T08:52:51.275Z,32.77
2019-03-20T08:55:20.591Z,32.83
2019-03-20T08:57:48.919Z,32.63
2019-03-20T09:00:22.205Z,32.99
2019-03-20T09:02:50.604Z,32.34
2019-03-20T09:05:18.942Z,32.30
2019-03-20T09:07:47.807Z,32.35
2019-03-20T09:10:20.868Z,32.29
2019-03-20T09:12:49.291Z,32.70
2019-03-20T09:15:18.635Z,31.90
2019-03-20T09:17:46.918Z,30.91
2019-03-20T09:20:18.652Z,30.39
2019-03-20T09:22:47.095Z,29.39
2019-03-20T09:25:16.971Z,30.94
2019-03-20T09:27:45.427Z,30.82
2019-03-20T09:30:16.512Z,31.98
2019-03-20T09:32:44.777Z,31.64
2019-03-20T09:35:13.118Z,32.19
2019-03-20T09:37:51.260Z,31.09
2019-03-20T09:40:15.992Z,30.44
2019-03-20T09:42:44.343Z,30.44
2019-03-20T09:45:17.534Z,30.97
2019-03-20T09:47:45.898Z,30.46
2019-03-20T09:50:18.595Z,31.15
2019-03-20T09:52:46.929Z,31.21
2019-03-20T09:55:15.957Z,29.77
2019-03-20T09:57:44.646Z,31.12
2019-03-20T10:00:29.094Z,30.08
2019-03-20T10:02:57.356Z,30.34
2019-03-20T10:05:25.710Z,28.88
2019-03-20T10:07:54.016Z,28.59
2019-03-20T10:10:27.046Z,28.74
2019-03-20T10:12:55.356Z,29.67
2019-03-20T10:15:31.318Z,29.51
2019-03-20T10:17:59.671Z,28.73
2019-03-20T10:20:28.177Z,28.41
2019-03-20T10:22:56.539Z,28.71
2019-03-20T10:25:24.872Z,29.45
2019-03-20T10:27:53.155Z,28.02
2019-03-20T10:30:28.199Z,27.37
2019-03-20T10:32:56.466Z,28.23
2019-03-20T10:35:24.878Z,28.66
2019-03-20T10:37:53.244Z,27.22
2019-03-20T10:40:22.325Z,27.11
2019-03-20T10:42:50.845Z,26.43
2019-03-20T10:45:20.356Z,26.30
2019-03-20T10:47:49.165Z,27.98
2019-03-20T10:50:30.431Z,27.82
2019-03-20T10:52:58.708Z,27.96
2019-03-20T10:55:27.006Z,26.42
2019-03-20T10:57:55.334Z,25.67
2019-03-20T11:00:24.742Z,25.77
2019-03-20T11:02:53.022Z,25.43
2019-03-20T11:05:21.349Z,27.19
2019-03-20T11:07:49.693Z,25.90
2019-03-20T11:10:27.749Z,26.31
2019-03-20T11:12:56.117Z,25.35
2019-03-20T11:15:25.415Z,25.20
2019-03-20T11:17:53.689Z,23.93
2019-03-20T11:20:22.805Z,23.37
2019-03-20T11:22:51.148Z,23.28
2019-03-20T11:25:21.279Z,24.24
2019-03-20T11:27:49.545Z,23.61
2019-03-20T11:30:20.486Z,23.98
2019-03-20T11:32:48.732Z,23.89
2019-03-20T11:35:17.002Z,24.41
2019-03-20T11:37:45.338Z,23.82
2019-03-20T11:40:33.779Z,24.09
2019-03-20T11:43:02.184Z,24.68
2019-03-20T11:45:30.591Z,23.53
2019-03-20T11:47:58.967Z,23.46
2019-03-20T11:50:29.541Z,23.64
2019-03-20T11:52:57.788Z,23.15
2019-03-20T11:55:26.131Z,23.04
2019-03-20T11:57:54.425Z,22.54
2019-03-20T12:00:24.142Z,21.45
2019-03-20T12:02:52.382Z,21.37
2019-03-20T12:05:20.715Z,22.18
2019-03-20T12:07:49.063Z,22.23
2019-03-20T12:10:20.341Z,21.58
2019-03-20T12:12:48.677Z,21.55
2019-03-20T12:15:17.016Z,20.12
2019-03-20T12:17:45.357Z,19.75
2019-03-20T12:20:16.792Z,19.19
2019-03-20T12:22:45.705Z,18.70
2019-03-20T12:25:19.579Z,19.17
2019-03-20T12:27:48.002Z,18.24
2019-03-20T12:30:21.528Z,19.30
2019-03-20T12:32:49.871Z,19.19
2019-03-20T12:35:19.190Z,19.29
2019-03-20T12:37:47.463Z,18.50
2019-03-20T12:40:18.668Z,19.70
2019-03-20T12:42:46.999Z,19.37
2019-03-20T12:45:18.707Z,19.74
2019-03-20T12:47:46.972Z,17.49
2019-03-20T12:50:15.334Z,17.31
2019-03-20T12:52:43.625Z,16.64
2019-03-20T12:55:14.322Z,17.56
2019-03-20T12:57:42.645Z,18.26
2019-03-20T13:00:27.401Z,17.62
2019-03-20T13:02:55.565Z,18.08
2019-03-20T13:05:23.836Z,17.17
2019-03-20T13:07:52.151Z,17.12
2019-03-20T13:10:24.600Z,16.62
2019-03-20T13:12:52.891Z,16.25
2019-03-20T13:15:22.598Z,18.32
2019-03-20T13:17:51.302Z,18.19
2019-03-20T13:20:19.731Z,16.63
2019-03-20T13:22:51.008Z,16.60
2019-03-20T13:25:19.387Z,17.03
2019-03-20T13:27:47.643Z,15.55
2019-03-20T13:30:21.690Z,15.83
2019-03-20T13:32:50.037Z,16.86
2019-03-20T13:35:18.309Z,16.55
2019-03-20T13:37:46.661Z,16.59
2019-03-20T13:40:15.090Z,15.99
2019-03-20T13:42:43.547Z,16.25
2019-03-20T13:45:20.988Z,15.78
2019-03-20T13:47:49.248Z,14.59
2019-03-20T13:50:17.591Z,15.45
2019-03-20T13:52:45.947Z,15.67
2019-03-20T13:55:15.869Z,15.81
2019-03-20T13:57:44.214Z,15.11
2019-03-20T14:00:20.393Z,15.95
2019-03-20T14:02:48.656Z,15.64
2019-03-20T14:05:16.921Z,15.39
2019-03-20T14:07:47.063Z,14.63
2019-03-20T14:10:25.660Z,14.26
2019-03-20T14:12:54.152Z,13.78
2019-03-20T14:15:22.590Z,15.05
2019-03-20T14:17:50.890Z,14.17
2019-03-20T14:20:26.829Z,14.20
2019-03-20T14:22:55.097Z,15.41
2019-03-20T14:25:23.443Z,15.87
2019-03-20T14:27:52.552Z,16.31
2019-03-20T14:30:28.098Z,15.21
2019-03-20T14:32:56.541Z,14.60
2019-03-20T14:35:24.897Z,14.69
2019-03-20T14:37:53.439Z,15.33
2019-03-20T14:40:34.880Z,15.87
2019-03-20T14:43:00.908Z,16.10
2019-03-20T14:45:29.135Z,15.29
2019-03-20T14:47:57.386Z,15.70
2019-03-20T14:50:29.718Z,15.01
2019-03-20T14:52:57.983Z,15.12
2019-03-20T14:55:26.433Z,14.45
2019-03-20T14:57:56.341Z,13.64
2019-03-20T15:00:28.650Z,13.93
2019-03-20T15:02:56.993Z,13.59
2019-03-20T15:05:25.608Z,13.83
2019-03-20T15:07:53.924Z,14.21
2019-03-20T15:10:23.616Z,14.05
2019-03-20T15:12:52.733Z,12.96
2019-03-20T15:15:33.252Z,12.94
2019-03-20T15:18:01.543Z,12.89
2019-03-20T15:20:29.828Z,12.84
2019-03-20T15:22:58.131Z,13.25
2019-03-20T15:25:26.446Z,13.03
2019-03-20T15:27:54.708Z,13.85
2019-03-20T15:30:24.355Z,13.21
2019-03-20T15:32:52.793Z,12.32
2019-03-20T15:35:21.162Z,13.90
2019-03-20T15:37:49.422Z,13.77
2019-03-20T15:40:20.273Z,13.18
2019-03-20T15:42:48.635Z,13.73
2019-03-20T15:45:17.849Z,14.00
2019-03-20T15:47:46.247Z,12.09
2019-03-20T15:50:18.550Z,13.47
2019-03-20T15:52:46.819Z,12.82
2019-03-20T15:55:23.870Z,13.12
2019-03-20T15:57:52.213Z,13.33
2019-03-20T16:00:21.643Z,13.22
2019-03-20T16:02:55.702Z,12.12
2019-03-20T16:05:23.999Z,12.83
2019-03-20T16:07:52.295Z,12.81
2019-03-20T16:10:22.562Z,12.46
2019-03-20T16:12:51.058Z,12.88
2019-03-20T16:15:24.254Z,12.27
2019-03-20T16:17:53.027Z,12.92
2019-03-20T16:20:21.321Z,13.69
2019-03-20T16:22:49.589Z,14.66
2019-03-20T16:25:22.110Z,13.14
2019-03-20T16:27:50.366Z,14.11
2019-03-20T16:30:27.059Z,13.41
2019-03-20T16:32:56.454Z,13.63
2019-03-20T16:35:25.109Z,13.85
2019-03-20T16:37:53.375Z,14.10
2019-03-20T16:40:29.454Z,14.17
2019-03-20T16:42:57.882Z,13.95
2019-03-20T16:45:36.761Z,13.84
2019-03-20T16:48:05.989Z,14.83
2019-03-20T16:50:34.249Z,15.80
2019-03-20T16:53:02.595Z,15.65
2019-03-20T16:55:30.979Z,15.81
2019-03-20T16:57:59.347Z,16.01
2019-03-20T17:00:32.439Z,17.62
2019-03-20T17:03:00.794Z,17.99
2019-03-20T17:05:30.202Z,17.52
2019-03-20T17:07:58.537Z,18.37
2019-03-20T17:10:38.392Z,18.06
2019-03-20T17:13:06.833Z,19.32
2019-03-20T17:15:45.335Z,18.83
2019-03-20T17:18:21.601Z,18.80
2019-03-20T17:20:59.308Z,18.98
2019-03-20T17:23:27.689Z,18.37
2019-03-20T17:25:55.953Z,18.51
2019-03-20T17:28:24.234Z,17.96
2019-03-20T17:30:53.327Z,17.88
2019-03-20T17:33:21.596Z,17.78
2019-03-20T17:35:49.878Z,18.42
2019-03-20T17:38:18.188Z,18.21
2019-03-20T17:40:46.476Z,18.39
2019-03-20T17:43:14.768Z,18.21
2019-03-20T17:45:43.027Z,18.67
2019-03-20T17:48:11.365Z,17.91
2019-03-20T17:50:39.665Z,18.75
2019-03-20T17:53:07.930Z,18.92
2019-03-20T17:55:36.208Z,19.47
2019-03-20T17:58:05.133Z,18.81
2019-03-20T18:00:37.958Z,19.15
2019-03-20T18:03:07.011Z,19.13
2019-03-20T18:05:35.356Z,20.05
2019-03-20T18:08:04.885Z,20.09
2019-03-20T18:10:33.379Z,19.42
2019-03-20T18:13:01.809Z,19.42
2019-03-20T18:15:30.109Z,19.51
2019-03-20T18:17:58.405Z,19.49
2019-03-20T18:20:26.731Z,19.01
2019-03-20T18:22:55.000Z,20.29
2019-03-20T18:25:23.257Z,20.54
2019-03-20T18:27:51.595Z,21.37
2019-03-20T18:30:22.260Z,20.00
2019-03-20T18:32:50.568Z,19.72
2019-03-20T18:35:18.905Z,20.00
2019-03-20T18:37:47.350Z,20.63
2019-03-20T18:40:17.493Z,20.63
2019-03-20T18:42:46.130Z,20.89
2019-03-20T18:45:17.437Z,21.29
2019-03-20T18:47:45.714Z,21.23
2019-03-20T18:50:16.237Z,21.38
2019-03-20T18:52:44.526Z,21.42
2019-03-20T18:55:15.045Z,21.49
2019-03-20T18:57:43.395Z,21.02
2019-03-20T19:00:14.758Z,21.09
2019-03-20T19:02:43.101Z,21.32
2019-03-20T19:05:14.574Z,21.89
2019-03-20T19:07:42.838Z,23.06
2019-03-20T19:10:11.793Z,22.45
2019-03-20T19:12:40.182Z,21.93
2019-03-20T19:15:10.900Z,21.90
2019-03-20T19:17:39.266Z,20.78
2019-03-20T19:20:16.818Z,21.16
2019-03-20T19:22:45.149Z,21.24
2019-03-20T19:25:17.566Z,22.07
2019-03-20T19:27:45.930Z,22.73
2019-03-20T19:30:21.849Z,22.91
2019-03-20T19:32:50.123Z,23.29
2019-03-20T19:35:18.403Z,23.61
2019-03-20T19:37:46.724Z,23.54
2019-03-20T19:40:16.853Z,23.70
2019-03-20T19:42:45.117Z,24.06
2019-03-20T19:45:14.834Z,23.93
2019-03-20T19:47:43.108Z,23.89
2019-03-20T19:50:16.536Z,24.08
2019-03-20T19:52:44.800Z,23.52
2019-03-20T19:55:14.824Z,23.28
2019-03-20T19:57:43.106Z,23.20
2019-03-20T20:00:17.531Z,24.23
2019-03-20T20:02:45.895Z,23.89
2019-03-20T20:05:15.906Z,24.83
2019-03-20T20:07:44.763Z,23.70
2019-03-20T20:10:17.506Z,23.62
2019-03-20T20:12:45.932Z,23.76
2019-03-20T20:15:23.446Z,23.47
2019-03-20T20:17:52.100Z,23.46
2019-03-20T20:20:22.890Z,23.04
2019-03-20T20:22:51.151Z,23.44
2019-03-20T20:25:19.430Z,23.27
2019-03-20T20:27:47.725Z,23.52
2019-03-20T20:30:19.789Z,23.18
2019-03-20T20:32:48.139Z,23.58
2019-03-20T20:35:17.264Z,24.15
2019-03-20T20:37:46.302Z,23.74
2019-03-20T20:40:20.073Z,23.78
2019-03-20T20:42:48.330Z,24.32
2019-03-20T20:45:16.645Z,23.33
2019-03-20T20:47:44.934Z,23.58
2019-03-20T20:50:14.443Z,25.32
2019-03-20T20:52:42.866Z,24.24
2019-03-20T20:55:15.857Z,23.61
2019-03-20T20:57:44.170Z,22.67
2019-03-20T21:00:17.317Z,23.78
2019-03-20T21:02:45.608Z,23.03
2019-03-20T21:05:13.881Z,22.84
2019-03-20T21:07:42.180Z,22.95
2019-03-20T21:10:15.417Z,23.54
2019-03-20T21:12:55.202Z,24.60
2019-03-20T21:15:37.648Z,23.56
2019-03-20T21:18:15.242Z,23.63
2019-03-20T21:20:44.142Z,24.49
2019-03-20T21:23:37.978Z,24.02
2019-03-20T21:26:24.337Z,24.24
2019-03-20T21:29:12.014Z,23.83
2019-03-20T21:31:43.590Z,23.72
2019-03-20T21:34:48.056Z,23.42
2019-03-20T21:37:28.520Z,23.37
2019-03-20T21:39:56.799Z,23.96
2019-03-20T21:42:34.298Z,23.58
2019-03-20T21:45:26.925Z,24.91
2019-03-20T21:47:55.229Z,25.24
2019-03-20T21:50:54.071Z,24.25
2019-03-20T21:53:46.641Z,24.10
2019-03-20T21:56:18.117Z,23.55
2019-03-20T21:59:07.728Z,23.33
2019-03-20T22:01:48.235Z,25.21
2019-03-20T22:04:16.536Z,24.01
2019-03-20T22:07:08.480Z,23.57
2019-03-20T22:09:52.190Z,24.18
2019-03-20T22:12:26.348Z,24.45
2019-03-20T22:15:00.349Z,24.00
2019-03-20T22:17:51.710Z,24.28
2019-03-20T22:20:29.338Z,23.84
2019-03-20T22:23:19.799Z,23.51
2019-03-20T22:25:54.171Z,23.80
2019-03-20T22:28:25.602Z,24.23
2019-03-20T22:30:53.881Z,25.54
2019-03-20T22:33:58.895Z,24.34
2019-03-20T22:36:27.545Z,23.89
2019-03-20T22:39:14.015Z,26.67
2019-03-20T22:42:03.656Z,24.99
2019-03-20T22:44:32.453Z,24.90
2019-03-20T22:47:15.748Z,25.07
2019-03-20T22:49:55.749Z,24.27
2019-03-20T22:52:33.022Z,24.32
2019-03-20T22:55:30.334Z,24.37
2019-03-20T22:58:16.753Z,24.12
2019-03-20T23:00:48.209Z,24.70
2019-03-20T23:03:22.449Z,24.51
2019-03-20T23:05:50.741Z,24.01
2019-03-20T23:08:18.997Z,24.84
2019-03-20T23:10:50.218Z,22.89
2019-03-20T23:13:19.459Z,23.78
2019-03-20T23:15:48.704Z,24.52
2019-03-20T23:18:17.028Z,23.07
2019-03-20T23:20:45.292Z,23.48
2019-03-20T23:23:13.558Z,22.93
2019-03-20T23:25:41.822Z,23.59
2019-03-20T23:28:10.097Z,25.31
2019-03-20T23:30:38.359Z,26.30
2019-03-20T23:33:06.631Z,24.36
2019-03-20T23:35:34.894Z,26.54
2019-03-20T23:38:03.227Z,24.71
2019-03-20T23:40:31.493Z,24.52
2019-03-20T23:43:13.614Z,25.02
2019-03-20T23:45:42.020Z,24.15
2019-03-20T23:48:13.461Z,23.86
2019-03-20T23:50:42.129Z,23.78
2019-03-20T23:53:10.419Z,24.43
2019-03-20T23:55:38.741Z,23.70
2019-03-20T23:58:07.018Z,23.00
